Hortense, GA (31543)

5:45 PM EDT on July 05, 2015 (GMT -0400)
KGAHORTE3 | | Change Station
CLOSE
Current Station
Personal Weather Station
Location: Hortense, GA
Elevation: 56 ft
Nearby Weather Stations

Elev 56 ft 31.34 °N, 81.96 °W | Updated 11 seconds ago

Rain
Rain
77.2 °F
Feels Like 75 °F
N
0.2
Wind Variable Wind from North
Gusts 0.4 mph

Today
High -- | Low -- °F
--% Chance of Precip.
Yesterday
High -- | Low -- °F
Precip. -- in
6:28 AM 8:35 PM
Waning Gibbous, 82% visible
Pressure 30.15 in
Visibility 10.0 miles
Clouds Mostly Cloudy 1800 ft
Mostly Cloudy 9500 ft
Heat Index 75 °F
Dew Point Not available.
Humidity Not available.
Rainfall 0.00 in
Snow Depth Not available.
UV 3 out of 12
Pollen .40 out of 12
Air Quality Not available.
Flu Activity Not available.
METAR KJES 052135Z AUTO 15003KT 10SM BKN018 BKN095 26/23 A3015 RMK AO2

More Conditions Fewer Conditions

Pressure 30.15 in
Visibility 10.0 miles
Clouds Mostly Cloudy 1800 ft
Mostly Cloudy 9500 ft
Heat Index 75 °F
Dew Point Not available.
Humidity Not available.
Rainfall 0.00 in
Snow Depth Not available.
UV 3 out of 12
Pollen .40 out of 12
Air Quality Not available.
Flu Activity Not available.
METAR KJES 052135Z AUTO 15003KT 10SM BKN018 BKN095 26/23 A3015 RMK AO2

More Conditions Fewer Conditions

10-Day Weather Forecast

×

Almanac

Astronomy

Jul. 05, 2015 Rise Set
Actual Time
Civil Twilight
Nautical Twilight
Astronomical Twilight
Moon
Length of Visible Light
Length of Day
Tomorrow will be .
, % of the Moon is Illuminated

Today's Extremes

State Highs State Lows

Community

WunderPhotos

Upload Photos

1,835,400 photos uploaded!

WunderBlogs® & News

Nearby

Air Quality

  Air Quality AQ Index Pollutant
Not available.

Snow Depth

Station Depth Elevation

Earthquake Activity

City Distance Mag. Time & Date
Minimum magnitude displayed is 2.5.

Coastal Water Temperatures

Place Temperature

Stations

Nearby Weather Stations

Station Location Temp. Windchill Dew Point Humidity Wind Precip. Elev Updated Type